aviador You're here:

KRVS Decoded Metar

TULSA in OK, USA
Report Time2017-05-26 12:53:00
UTC Time2017-05-26 13:08:36
Flight Rules vfr VFR
WindVRB at 03 kt
Visibility9999 m
Phenomena:N/A
Clouds:N/A
Expected CloudBase > 2,400 ft AGL from Temp-Dew spread
CeilingNone
Temp23°C (ISA +9)
Dew Point17°C (69% RH)
QNH1004 hPa
Density Alt2,300 ft
Elevation656 ft
Report Wrong Elevation
Raw Report
KRVS 261253Z VRB03KT 10SM CLR 23/17 A2966 RMK AO2 SLP047
T02280172=

Extra information for KRVS:More info

Metar Taf Metar & Taf Last 4 Metars F.Rules Stats Wind Profile Meteogram Temp Stats Airport Information Weather charts Add Link Nearby VenuesMetar ALERT Operation Metar Decoded Social comments

AIRNAV info for KRVS